Time;durP1;ratioP1;P1;durP2;ratioP2;P2;SDS_P1;SDS_P2;PMS_P1;PMS_P2;Temp;Humidity;BMP_temperature;BMP_pressure;BME280_temperature;BME280_humidity;BME280_pressure;Samples;Min_cycle;Max_cycle;Signal;HPM_P1;HPM_P2
2022/12/14 00:01:24;;;;;;;;;;;5.00;99.90;;;;;;5073243;28;19908;-73
2022/12/14 00:03:50;;;;;;;;;;;5.00;99.90;;;;;;5073238;28;19912;-71
2022/12/14 00:06:18;;;;;;;;;;;5.10;99.90;;;;;;5073150;28;19920;-73
2022/12/14 00:08:45;;;;;;;;;;;5.10;99.90;;;;;;5044594;28;19909;-71
2022/12/14 00:11:13;;;;;;;;;;;5.10;99.90;;;;;;5052531;28;19916;-71
2022/12/14 00:13:39;;;;;;;;;;;5.10;99.90;;;;;;5066023;28;19966;-71
2022/12/14 00:16:06;;;;;;;;;;;5.20;99.90;;;;;;5073398;28;19909;-71
2022/12/14 00:18:31;;;;;;;;;;;5.10;99.90;;;;;;5073737;28;20348;-71
2022/12/14 00:21:01;;;;;;;;;;;5.10;99.90;;;;;;5073421;28;19908;-70
2022/12/14 00:23:27;;;;;;;;;;;5.20;99.90;;;;;;5075878;28;19991;-72
2022/12/14 00:25:53;;;;;;;;;;;5.10;99.90;;;;;;5048767;28;19912;-71
2022/12/14 00:28:19;;;;;;;;;;;5.10;99.90;;;;;;5053045;28;20023;-71
2022/12/14 00:30:45;;;;;;;;;;;5.10;99.90;;;;;;5081963;28;19912;-71
2022/12/14 00:33:10;;;;;;;;;;;5.10;99.90;;;;;;5093482;28;19908;-71
2022/12/14 00:35:36;;;;;;;;;;;5.10;99.90;;;;;;5093240;28;20286;-71
2022/12/14 00:38:02;;;;;;;;;;;5.10;99.90;;;;;;5093354;28;20064;-74
2022/12/14 00:40:27;;;;;;;;;;;5.10;99.90;;;;;;5075180;28;19912;-71
2022/12/14 00:42:53;;;;;;;;;;;5.10;99.90;;;;;;5067793;28;20292;-72
2022/12/14 00:45:18;;;;;;;;;;;5.10;99.90;;;;;;5051869;28;20365;-71
2022/12/14 00:47:44;;;;;;;;;;;5.10;99.90;;;;;;5053404;28;19956;-71
2022/12/14 00:50:10;;;;;;;;;;;5.10;99.90;;;;;;5054436;28;19932;-71
2022/12/14 00:52:44;;;;;;;;;;;5.10;99.90;;;;;;5054863;28;19913;-71
2022/12/14 00:55:10;;;;;;;;;;;5.10;99.90;;;;;;5073978;28;19923;-71
2022/12/14 00:57:36;;;;;;;;;;;5.10;99.90;;;;;;5076681;28;20405;-71
2022/12/14 01:00:04;;;;;;;;;;;5.10;99.90;;;;;;5064336;28;19908;-72
2022/12/14 01:02:30;;;;;;;;;;;5.10;99.90;;;;;;5056797;28;19912;-71
2022/12/14 01:04:56;;;;;;;;;;;5.10;99.90;;;;;;5056032;28;20265;-70
2022/12/14 01:07:21;;;;;;;;;;;5.20;99.90;;;;;;5056473;28;19916;-70
2022/12/14 01:09:47;;;;;;;;;;;5.30;99.90;;;;;;5055786;28;20388;-70
2022/12/14 01:12:13;;;;;;;;;;;5.30;99.90;;;;;;5057394;28;19935;-70
2022/12/14 01:14:38;;;;;;;;;;;5.20;99.90;;;;;;5075415;28;19909;-71
2022/12/14 01:17:05;;;;;;;;;;;5.30;99.90;;;;;;5071013;28;19917;-71
2022/12/14 01:19:31;;;;;;;;;;;5.40;99.90;;;;;;5055681;28;19916;-71
2022/12/14 01:21:57;;;;;;;;;;;5.40;99.90;;;;;;5056846;28;19974;-70
2022/12/14 01:24:23;;;;;;;;;;;5.40;99.90;;;;;;5057175;28;19967;-72
2022/12/14 01:26:49;;;;;;;;;;;5.40;99.90;;;;;;5056376;28;19967;-71
2022/12/14 01:29:15;;;;;;;;;;;5.40;99.90;;;;;;5073943;28;19916;-72
2022/12/14 01:31:40;;;;;;;;;;;5.50;99.90;;;;;;5075125;28;19913;-71
2022/12/14 01:34:07;;;;;;;;;;;5.40;99.90;;;;;;5068576;28;20402;-71
2022/12/14 01:36:33;;;;;;;;;;;5.30;99.90;;;;;;5075307;28;20353;-72
2022/12/14 01:39:00;;;;;;;;;;;5.40;99.90;;;;;;5075175;28;20580;-71
2022/12/14 01:41:27;;;;;;;;;;;5.40;99.90;;;;;;5056978;28;19908;-75
2022/12/14 01:43:54;;;;;;;;;;;5.30;99.90;;;;;;5075338;28;19956;-71
2022/12/14 01:46:24;;;;;;;;;;;5.40;99.90;;;;;;5065971;28;19913;-71
2022/12/14 01:48:51;;;;;;;;;;;5.50;99.90;;;;;;5055389;28;19913;-71
2022/12/14 01:51:17;;;;;;;;;;;5.50;99.90;;;;;;5056118;28;19915;-71
2022/12/14 01:53:42;;;;;;;;;;;5.60;99.90;;;;;;5070364;28;20365;-70
2022/12/14 01:56:09;;;;;;;;;;;5.60;99.90;;;;;;5069265;28;20003;-70
2022/12/14 01:58:34;;;;;;;;;;;5.50;99.90;;;;;;5053243;28;20396;-71
2022/12/14 02:01:01;;;;;;;;;;;5.40;99.90;;;;;;5055362;28;19909;-71
2022/12/14 02:03:37;;;;;;;;;;;5.40;99.90;;;;;;5057600;28;20280;-71
2022/12/14 02:06:07;;;;;;;;;;;5.40;99.90;;;;;;5055897;28;19909;-70
2022/12/14 02:08:34;;;;;;;;;;;5.30;99.90;;;;;;5055968;28;19909;-71
2022/12/14 02:11:00;;;;;;;;;;;5.30;99.90;;;;;;5054741;28;19908;-71
2022/12/14 02:13:31;;;;;;;;;;;5.30;99.90;;;;;;5054825;28;19913;-71
2022/12/14 02:15:57;;;;;;;;;;;5.40;99.90;;;;;;5053947;28;19959;-71
2022/12/14 02:18:24;;;;;;;;;;;5.30;99.90;;;;;;5054738;28;20372;-71
2022/12/14 02:20:49;;;;;;;;;;;5.30;99.90;;;;;;5054344;28;19966;-71
2022/12/14 02:23:30;;;;;;;;;;;5.40;99.90;;;;;;5077349;28;20387;-71
2022/12/14 02:25:59;;;;;;;;;;;5.50;99.90;;;;;;5057336;28;19908;-70
2022/12/14 02:28:43;;;;;;;;;;;5.50;99.90;;;;;;5054575;28;19912;-73
2022/12/14 02:31:27;;;;;;;;;;;5.40;99.90;;;;;;5054506;28;19948;-71
2022/12/14 02:33:56;;;;;;;;;;;5.50;99.90;;;;;;5054650;28;19945;-71
2022/12/14 02:36:35;;;;;;;;;;;5.50;99.90;;;;;;5062434;28;19931;-70
2022/12/14 02:39:04;;;;;;;;;;;5.60;99.90;;;;;;5074356;28;19916;-71
2022/12/14 02:41:37;;;;;;;;;;;5.60;99.90;;;;;;5073361;28;19958;-72
2022/12/14 02:44:21;;;;;;;;;;;5.60;99.90;;;;;;5073331;28;19908;-70
2022/12/14 02:46:54;;;;;;;;;;;5.60;99.90;;;;;;5073383;28;19950;-70
2022/12/14 02:49:25;;;;;;;;;;;5.50;99.90;;;;;;5056085;28;19913;-70
2022/12/14 02:51:57;;;;;;;;;;;5.50;99.90;;;;;;5073638;28;19908;-70
2022/12/14 02:54:26;;;;;;;;;;;5.50;99.90;;;;;;5084875;28;19912;-70
2022/12/14 02:56:55;;;;;;;;;;;5.50;99.90;;;;;;5075551;28;19943;-70
2022/12/14 02:59:22;;;;;;;;;;;5.50;99.90;;;;;;5062545;28;19917;-70
2022/12/14 03:01:52;;;;;;;;;;;5.40;99.90;;;;;;5063415;28;19931;-70
2022/12/14 03:04:17;;;;;;;;;;;5.40;99.90;;;;;;5068976;28;19916;-70
2022/12/14 03:06:58;;;;;;;;;;;5.30;99.90;;;;;;5064095;28;20004;-71
2022/12/14 03:09:24;;;;;;;;;;;5.30;99.90;;;;;;5066467;28;19913;-70
2022/12/14 03:11:51;;;;;;;;;;;5.30;99.90;;;;;;5055533;28;19917;-70
2022/12/14 03:14:27;;;;;;;;;;;5.30;99.90;;;;;;5055224;28;19950;-70
2022/12/14 03:16:55;;;;;;;;;;;5.30;99.90;;;;;;5064101;28;20042;-70
2022/12/14 03:19:21;;;;;;;;;;;5.30;99.90;;;;;;5056972;28;20434;-72
2022/12/14 03:21:49;;;;;;;;;;;5.30;99.90;;;;;;5055333;28;19928;-70
2022/12/14 03:24:18;;;;;;;;;;;5.40;99.90;;;;;;5054040;28;19916;-71
2022/12/14 03:26:50;;;;;;;;;;;5.30;99.90;;;;;;5061165;28;19954;-70
2022/12/14 03:29:26;;;;;;;;;;;5.30;99.90;;;;;;5054006;28;19912;-71
2022/12/14 03:31:53;;;;;;;;;;;5.20;99.90;;;;;;5053541;28;19912;-70
2022/12/14 03:34:22;;;;;;;;;;;5.10;99.90;;;;;;5065482;28;19949;-70
2022/12/14 03:36:49;;;;;;;;;;;5.10;99.90;;;;;;5068350;28;19912;-71
2022/12/14 03:39:22;;;;;;;;;;;5.10;99.90;;;;;;5063667;28;20020;-73
2022/12/14 03:41:59;;;;;;;;;;;5.00;99.90;;;;;;5067758;28;19931;-71
2022/12/14 03:44:35;;;;;;;;;;;5.00;99.90;;;;;;5073150;28;20314;-69
2022/12/14 03:47:01;;;;;;;;;;;4.90;99.90;;;;;;5067631;28;19913;-71
2022/12/14 03:49:45;;;;;;;;;;;4.90;99.90;;;;;;5060192;28;19948;-70
2022/12/14 03:52:18;;;;;;;;;;;4.90;99.90;;;;;;5067995;28;20299;-70
2022/12/14 03:54:44;;;;;;;;;;;4.90;99.90;;;;;;5065498;28;20348;-69
2022/12/14 03:57:26;;;;;;;;;;;4.90;99.90;;;;;;5067948;28;19944;-70
2022/12/14 04:00:12;;;;;;;;;;;4.90;99.90;;;;;;5066827;28;19916;-70
2022/12/14 04:02:49;;;;;;;;;;;5.00;99.90;;;;;;5065085;28;20419;-70
2022/12/14 04:05:15;;;;;;;;;;;5.00;99.90;;;;;;5072939;28;19916;-70
2022/12/14 04:07:57;;;;;;;;;;;4.90;99.90;;;;;;5047900;28;20003;-71
2022/12/14 04:18:56;;;;;;;;;;;4.70;99.90;;;;;;5069535;28;19923;-71
2022/12/14 04:21:30;;;;;;;;;;;4.70;99.90;;;;;;5068490;28;19942;-71
2022/12/14 04:26:51;;;;;;;;;;;4.70;99.90;;;;;;5072155;28;19923;-71
2022/12/14 04:32:16;;;;;;;;;;;4.70;99.90;;;;;;5071839;28;20402;-70
2022/12/14 04:34:44;;;;;;;;;;;4.70;99.90;;;;;;5067343;28;20003;-69
2022/12/14 04:37:12;;;;;;;;;;;4.70;99.90;;;;;;5082694;28;19917;-71
2022/12/14 04:39:43;;;;;;;;;;;4.70;99.90;;;;;;5068736;28;19916;-72
2022/12/14 04:42:09;;;;;;;;;;;4.70;99.90;;;;;;5070998;28;19943;-70
2022/12/14 04:44:36;;;;;;;;;;;4.70;99.90;;;;;;5070844;28;19917;-74
2022/12/14 04:47:04;;;;;;;;;;;4.70;99.90;;;;;;5071202;28;20011;-71
2022/12/14 04:49:30;;;;;;;;;;;4.80;99.90;;;;;;5072171;28;19920;-70
2022/12/14 04:52:11;;;;;;;;;;;4.80;99.90;;;;;;5072592;28;19935;-70
2022/12/14 04:54:43;;;;;;;;;;;4.80;99.90;;;;;;5071343;28;19916;-71
2022/12/14 04:57:23;;;;;;;;;;;4.90;99.90;;;;;;5066062;28;19913;-70
2022/12/14 04:59:49;;;;;;;;;;;4.90;99.90;;;;;;5068813;28;20025;-70
2022/12/14 05:02:21;;;;;;;;;;;4.90;99.90;;;;;;5073749;28;20563;-70
2022/12/14 05:04:56;;;;;;;;;;;5.00;99.90;;;;;;5070213;28;19971;-70
2022/12/14 05:07:32;;;;;;;;;;;5.00;99.90;;;;;;5068997;28;19920;-70
2022/12/14 05:10:01;;;;;;;;;;;5.10;99.90;;;;;;5053230;28;20334;-71
2022/12/14 05:12:35;;;;;;;;;;;5.10;99.90;;;;;;5064908;28;19913;-70
2022/12/14 05:15:08;;;;;;;;;;;5.20;99.90;;;;;;5069922;28;19920;-70
2022/12/14 05:17:34;;;;;;;;;;;5.20;99.90;;;;;;5068979;28;19927;-71
2022/12/14 05:20:12;;;;;;;;;;;5.20;99.90;;;;;;5074097;28;19912;-71
2022/12/14 05:22:38;;;;;;;;;;;5.30;99.90;;;;;;5074770;28;19919;-71
2022/12/14 05:25:04;;;;;;;;;;;5.30;99.90;;;;;;5071403;28;20843;-70
2022/12/14 05:27:30;;;;;;;;;;;5.30;99.90;;;;;;5073040;28;19974;-71
2022/12/14 05:29:57;;;;;;;;;;;5.30;99.90;;;;;;5052032;28;20331;-70
2022/12/14 05:32:22;;;;;;;;;;;5.30;99.90;;;;;;5052234;28;19955;-70
2022/12/14 05:34:51;;;;;;;;;;;5.30;99.90;;;;;;5072848;28;19954;-71
2022/12/14 05:37:17;;;;;;;;;;;5.40;99.90;;;;;;5074074;28;19942;-70
2022/12/14 05:39:43;;;;;;;;;;;5.40;99.90;;;;;;5066755;28;19916;-71
2022/12/14 05:42:08;;;;;;;;;;;5.50;99.90;;;;;;5072644;28;19917;-70
2022/12/14 05:44:34;;;;;;;;;;;5.50;99.90;;;;;;5072799;28;20492;-69
2022/12/14 05:47:00;;;;;;;;;;;5.50;99.90;;;;;;5071833;28;19912;-70
2022/12/14 05:49:28;;;;;;;;;;;5.40;99.90;;;;;;5055736;28;19908;-71
2022/12/14 05:51:54;;;;;;;;;;;5.50;99.90;;;;;;5073235;28;19952;-71
2022/12/14 05:54:22;;;;;;;;;;;5.60;99.90;;;;;;5072563;28;19931;-70
2022/12/14 05:56:47;;;;;;;;;;;5.60;99.90;;;;;;5074355;28;19950;-70
2022/12/14 05:59:14;;;;;;;;;;;5.60;99.90;;;;;;5068811;28;20409;-70
2022/12/14 06:01:41;;;;;;;;;;;5.60;99.90;;;;;;5074894;28;19962;-70
2022/12/14 06:04:06;;;;;;;;;;;5.60;99.90;;;;;;5074816;28;19908;-71
2022/12/14 06:06:32;;;;;;;;;;;5.60;99.90;;;;;;5072504;28;19915;-71
2022/12/14 06:08:58;;;;;;;;;;;5.60;99.90;;;;;;5074694;28;19962;-72
2022/12/14 06:11:24;;;;;;;;;;;5.50;99.90;;;;;;5074152;28;19912;-72
2022/12/14 06:13:50;;;;;;;;;;;5.50;99.90;;;;;;5074749;28;19931;-70
2022/12/14 06:16:23;;;;;;;;;;;5.50;99.90;;;;;;5065585;28;19992;-71
2022/12/14 06:18:50;;;;;;;;;;;5.50;99.90;;;;;;5073979;28;19913;-70
2022/12/14 06:21:16;;;;;;;;;;;5.50;99.90;;;;;;5068809;28;20010;-70
2022/12/14 06:23:42;;;;;;;;;;;5.60;99.90;;;;;;5065205;28;19924;-71
2022/12/14 06:26:08;;;;;;;;;;;5.70;99.90;;;;;;5071356;28;19909;-71
2022/12/14 06:28:34;;;;;;;;;;;5.70;99.90;;;;;;5073920;28;19909;-71
2022/12/14 06:31:01;;;;;;;;;;;5.70;99.90;;;;;;5070205;28;19923;-70
2022/12/14 06:33:27;;;;;;;;;;;5.60;99.90;;;;;;5067344;28;19920;-70
2022/12/14 06:35:53;;;;;;;;;;;5.70;99.90;;;;;;5069536;28;20481;-71
2022/12/14 06:38:19;;;;;;;;;;;5.90;99.90;;;;;;5085738;28;19988;-71
2022/12/14 06:40:44;;;;;;;;;;;6.10;99.90;;;;;;5061779;28;19951;-70
2022/12/14 06:43:10;;;;;;;;;;;6.20;99.90;;;;;;5070658;28;19913;-70
2022/12/14 06:45:36;;;;;;;;;;;6.30;99.90;;;;;;5053976;28;19913;-72
2022/12/14 06:48:01;;;;;;;;;;;6.30;99.90;;;;;;5069479;28;19919;-70
2022/12/14 06:50:27;;;;;;;;;;;6.30;99.90;;;;;;5071190;28;19928;-70
2022/12/14 06:52:56;;;;;;;;;;;6.30;99.90;;;;;;5071980;28;19935;-70
2022/12/14 06:55:22;;;;;;;;;;;6.20;99.90;;;;;;5059688;28;19917;-70
2022/12/14 06:57:51;;;;;;;;;;;6.10;99.90;;;;;;5034564;28;20365;-70
2022/12/14 07:00:18;;;;;;;;;;;6.10;99.90;;;;;;5052729;28;19909;-70
2022/12/14 07:02:45;;;;;;;;;;;6.10;99.90;;;;;;5053651;28;19926;-71
2022/12/14 07:05:10;;;;;;;;;;;6.20;99.90;;;;;;5053317;28;20318;-70
2022/12/14 07:07:36;;;;;;;;;;;6.40;99.90;;;;;;5053337;28;20007;-70
2022/12/14 07:10:02;;;;;;;;;;;6.50;99.90;;;;;;5053056;28;19931;-73
2022/12/14 07:12:28;;;;;;;;;;;6.40;99.90;;;;;;5034655;28;20014;-70
2022/12/14 07:14:54;;;;;;;;;;;6.40;99.90;;;;;;5033657;28;19909;-71
2022/12/14 07:17:20;;;;;;;;;;;6.30;99.90;;;;;;5034386;28;19919;-70
2022/12/14 07:19:48;;;;;;;;;;;6.30;99.90;;;;;;5051595;28;19955;-70
2022/12/14 07:22:14;;;;;;;;;;;6.30;99.90;;;;;;5050941;28;19913;-70
2022/12/14 07:24:40;;;;;;;;;;;6.20;99.90;;;;;;5053077;28;20283;-70
2022/12/14 07:27:06;;;;;;;;;;;6.30;99.90;;;;;;5051298;28;19909;-70
2022/12/14 07:29:31;;;;;;;;;;;6.20;99.90;;;;;;5048321;28;20458;-69
2022/12/14 07:31:57;;;;;;;;;;;6.30;99.90;;;;;;5053162;28;20296;-70
2022/12/14 07:34:26;;;;;;;;;;;6.30;99.90;;;;;;5043135;28;19913;-70
2022/12/14 07:37:15;;;;;;;;;;;6.30;99.90;;;;;;5052973;28;19924;-70
2022/12/14 07:39:41;;;;;;;;;;;6.30;99.90;;;;;;5043476;28;19962;-70
2022/12/14 07:42:07;;;;;;;;;;;6.20;99.90;;;;;;5034921;28;19909;-71
2022/12/14 07:44:32;;;;;;;;;;;6.20;99.90;;;;;;5049569;28;19916;-72
2022/12/14 07:46:58;;;;;;;;;;;6.20;99.90;;;;;;5046151;28;19919;-70
2022/12/14 07:49:24;;;;;;;;;;;6.20;99.90;;;;;;5046166;28;19925;-71
2022/12/14 07:51:51;;;;;;;;;;;6.20;99.90;;;;;;5046679;28;20008;-70
2022/12/14 07:54:17;;;;;;;;;;;6.30;99.90;;;;;;5067825;28;19912;-72
2022/12/14 07:56:43;;;;;;;;;;;6.30;99.90;;;;;;5076638;28;19914;-71
2022/12/14 07:59:14;;;;;;;;;;;6.40;99.90;;;;;;5072063;28;19917;-70
2022/12/14 08:01:39;;;;;;;;;;;6.50;99.90;;;;;;5070870;28;19916;-72
2022/12/14 08:04:06;;;;;;;;;;;6.50;99.90;;;;;;5065928;28;19920;-71
2022/12/14 08:06:32;;;;;;;;;;;6.50;99.90;;;;;;5070452;28;20307;-70
2022/12/14 08:08:59;;;;;;;;;;;6.50;99.90;;;;;;5068002;28;19924;-71
2022/12/14 08:11:28;;;;;;;;;;;6.40;99.90;;;;;;5057267;28;20518;-73
2022/12/14 08:13:55;;;;;;;;;;;6.40;99.90;;;;;;5074945;28;19924;-71
2022/12/14 08:16:21;;;;;;;;;;;6.40;99.90;;;;;;5069761;28;19917;-71
2022/12/14 08:18:47;;;;;;;;;;;6.50;99.90;;;;;;5082764;28;19920;-70
2022/12/14 08:21:19;;;;;;;;;;;6.60;99.90;;;;;;5071190;28;19913;-70
2022/12/14 08:23:45;;;;;;;;;;;6.70;99.90;;;;;;5066761;28;19916;-71
2022/12/14 08:26:11;;;;;;;;;;;6.80;99.90;;;;;;5065838;28;19913;-72
2022/12/14 08:28:36;;;;;;;;;;;6.80;99.90;;;;;;5074537;28;19912;-73
2022/12/14 08:31:06;;;;;;;;;;;6.80;99.90;;;;;;5065779;28;19921;-71
2022/12/14 08:33:33;;;;;;;;;;;6.80;99.90;;;;;;5072048;28;19958;-72
2022/12/14 08:36:18;;;;;;;;;;;6.80;99.90;;;;;;5070389;28;19916;-71
2022/12/14 08:38:44;;;;;;;;;;;6.80;99.90;;;;;;5076266;28;19931;-73
2022/12/14 08:41:11;;;;;;;;;;;6.90;99.90;;;;;;5070940;28;19908;-71
2022/12/14 08:43:37;;;;;;;;;;;6.90;99.90;;;;;;5096838;28;19909;-71
2022/12/14 08:46:03;;;;;;;;;;;6.90;99.90;;;;;;5096512;28;19918;-71
2022/12/14 08:48:28;;;;;;;;;;;6.80;99.90;;;;;;5097103;28;20371;-71
2022/12/14 08:50:59;;;;;;;;;;;6.80;99.90;;;;;;5096810;28;19908;-71
2022/12/14 08:53:25;;;;;;;;;;;6.80;99.90;;;;;;5088878;28;20344;-73
2022/12/14 08:55:50;;;;;;;;;;;6.80;99.90;;;;;;5069050;28;19966;-73
2022/12/14 08:58:16;;;;;;;;;;;6.90;99.90;;;;;;5072396;28;19924;-73
2022/12/14 09:00:42;;;;;;;;;;;6.90;99.90;;;;;;5068756;28;19951;-74
2022/12/14 09:03:07;;;;;;;;;;;7.00;99.90;;;;;;5075528;28;19917;-73
2022/12/14 09:05:33;;;;;;;;;;;7.20;99.90;;;;;;5069129;28;19919;-73
2022/12/14 09:07:59;;;;;;;;;;;7.40;99.90;;;;;;5074688;28;20003;-73
2022/12/14 09:10:24;;;;;;;;;;;7.50;99.90;;;;;;5075318;28;19916;-73
2022/12/14 09:12:50;;;;;;;;;;;7.50;99.90;;;;;;5068377;28;20646;-74
2022/12/14 09:15:16;;;;;;;;;;;7.50;99.90;;;;;;5073942;28;19912;-74
2022/12/14 09:17:41;;;;;;;;;;;7.60;99.90;;;;;;5055792;28;20395;-73
2022/12/14 09:20:09;;;;;;;;;;;7.60;99.90;;;;;;5069049;28;19921;-73
2022/12/14 09:22:34;;;;;;;;;;;7.70;99.90;;;;;;5074175;28;19908;-74
2022/12/14 09:25:00;;;;;;;;;;;7.70;99.90;;;;;;5069401;28;19920;-73
2022/12/14 09:27:26;;;;;;;;;;;7.60;99.90;;;;;;5052780;28;20297;-74
2022/12/14 09:29:52;;;;;;;;;;;7.60;99.90;;;;;;5066868;28;19912;-74
2022/12/14 09:32:17;;;;;;;;;;;7.50;99.90;;;;;;5075029;28;20360;-74
2022/12/14 09:34:43;;;;;;;;;;;7.40;99.90;;;;;;5056755;28;19908;-74
2022/12/14 09:37:09;;;;;;;;;;;7.50;99.90;;;;;;5074212;28;19952;-75
2022/12/14 09:39:35;;;;;;;;;;;7.40;99.90;;;;;;5068891;28;19920;-74
2022/12/14 09:42:12;;;;;;;;;;;7.40;99.90;;;;;;5070635;28;19908;-74
2022/12/14 09:44:38;;;;;;;;;;;7.40;99.90;;;;;;5072543;28;20010;-74
2022/12/14 09:47:26;;;;;;;;;;;7.40;99.90;;;;;;5067573;28;20004;-74
2022/12/14 09:49:52;;;;;;;;;;;7.40;99.90;;;;;;5060152;28;19959;-74
2022/12/14 09:52:19;;;;;;;;;;;7.40;99.90;;;;;;5073289;28;19947;-74
2022/12/14 09:54:46;;;;;;;;;;;7.40;99.90;;;;;;5070930;28;20409;-74
2022/12/14 09:57:18;;;;;;;;;;;7.50;99.90;;;;;;5067299;28;19913;-74
2022/12/14 09:59:43;;;;;;;;;;;7.50;99.90;;;;;;5067273;28;19912;-74
2022/12/14 10:02:27;;;;;;;;;;;7.50;99.90;;;;;;5074106;28;19909;-73
2022/12/14 10:05:04;;;;;;;;;;;7.50;99.90;;;;;;5066482;28;19951;-74
2022/12/14 10:07:55;;;;;;;;;;;7.60;99.90;;;;;;5068869;28;19958;-74
2022/12/14 10:10:32;;;;;;;;;;;7.70;99.90;;;;;;5066162;28;20242;-74
2022/12/14 10:13:02;;;;;;;;;;;7.80;99.90;;;;;;5042609;28;19920;-74
2022/12/14 10:15:38;;;;;;;;;;;7.80;99.90;;;;;;5067651;28;19919;-74
2022/12/14 10:18:23;;;;;;;;;;;7.90;99.90;;;;;;5064492;28;19962;-74
2022/12/14 10:20:51;;;;;;;;;;;7.90;99.90;;;;;;5068338;28;20376;-74
2022/12/14 10:23:19;;;;;;;;;;;8.00;99.90;;;;;;5067710;28;20319;-74
2022/12/14 10:25:47;;;;;;;;;;;8.00;99.90;;;;;;5047704;28;19960;-74
2022/12/14 10:28:19;;;;;;;;;;;8.00;99.90;;;;;;5064141;28;19967;-74
2022/12/14 10:30:45;;;;;;;;;;;8.00;99.90;;;;;;5065858;28;20645;-74
2022/12/14 10:33:25;;;;;;;;;;;8.10;99.90;;;;;;5050249;28;19917;-74
2022/12/14 10:35:54;;;;;;;;;;;8.10;99.90;;;;;;5065953;28;20272;-74
2022/12/14 10:38:33;;;;;;;;;;;8.20;99.90;;;;;;5070441;28;19913;-74
2022/12/14 10:41:06;;;;;;;;;;;8.10;99.90;;;;;;5053383;28;19908;-73
2022/12/14 10:43:42;;;;;;;;;;;8.10;99.90;;;;;;5068042;28;19943;-74
2022/12/14 10:46:21;;;;;;;;;;;8.10;99.90;;;;;;5070329;28;19946;-74
2022/12/14 10:49:01;;;;;;;;;;;8.20;99.90;;;;;;5072826;28;19928;-74
2022/12/14 10:51:32;;;;;;;;;;;8.10;99.90;;;;;;5067920;28;19959;-75
2022/12/14 10:54:17;;;;;;;;;;;8.20;99.90;;;;;;5060523;28;19921;-74
2022/12/14 10:56:43;;;;;;;;;;;8.20;99.90;;;;;;5064032;28;19981;-75
2022/12/14 10:59:21;;;;;;;;;;;8.20;99.90;;;;;;5064312;28;20338;-74
2022/12/14 11:01:47;;;;;;;;;;;8.30;99.90;;;;;;5073535;28;19923;-74
2022/12/14 11:04:34;;;;;;;;;;;8.20;99.90;;;;;;5071880;28;19909;-74
2022/12/14 11:07:07;;;;;;;;;;;8.10;99.90;;;;;;5066492;28;19919;-74
2022/12/14 11:09:33;;;;;;;;;;;8.00;99.90;;;;;;5066893;28;20321;-74
2022/12/14 11:12:04;;;;;;;;;;;8.00;99.90;;;;;;5071622;28;19948;-74
2022/12/14 11:14:30;;;;;;;;;;;8.00;99.90;;;;;;5070797;28;19927;-74
2022/12/14 11:16:56;;;;;;;;;;;7.90;99.90;;;;;;5061855;28;20007;-74
2022/12/14 11:19:24;;;;;;;;;;;7.90;99.90;;;;;;5071722;28;19965;-74
2022/12/14 11:21:59;;;;;;;;;;;7.80;99.90;;;;;;5067501;28;19947;-74
2022/12/14 11:24:26;;;;;;;;;;;7.90;99.90;;;;;;5070774;28;19921;-74
2022/12/14 11:26:53;;;;;;;;;;;7.90;99.90;;;;;;5069020;28;19920;-74
2022/12/14 11:29:27;;;;;;;;;;;7.90;99.90;;;;;;5070689;28;20001;-73
2022/12/14 11:31:53;;;;;;;;;;;7.90;99.90;;;;;;5067192;28;19912;-74
2022/12/14 11:34:21;;;;;;;;;;;7.90;99.90;;;;;;5070143;28;19931;-75
2022/12/14 11:36:47;;;;;;;;;;;8.10;99.90;;;;;;5056886;28;20260;-73
2022/12/14 11:39:13;;;;;;;;;;;8.20;99.90;;;;;;5051569;28;19924;-74
2022/12/14 11:41:59;;;;;;;;;;;8.20;99.90;;;;;;5072943;28;19920;-74
2022/12/14 11:44:26;;;;;;;;;;;8.30;99.90;;;;;;5070703;28;19916;-74
2022/12/14 11:46:52;;;;;;;;;;;8.40;99.90;;;;;;5070894;28;19966;-74
2022/12/14 11:49:21;;;;;;;;;;;8.40;99.90;;;;;;5072906;28;19909;-74
2022/12/14 11:51:54;;;;;;;;;;;8.50;99.90;;;;;;5067886;28;19962;-70
2022/12/14 11:54:19;;;;;;;;;;;8.50;99.90;;;;;;5055329;28;19917;-70
2022/12/14 11:56:48;;;;;;;;;;;8.60;99.90;;;;;;5067180;28;19925;-69
2022/12/14 11:59:16;;;;;;;;;;;8.60;99.90;;;;;;5072192;28;19916;-71
2022/12/14 12:01:42;;;;;;;;;;;8.60;99.90;;;;;;5071721;28;19919;-70
2022/12/14 12:04:11;;;;;;;;;;;8.60;99.90;;;;;;5073336;28;19909;-70
2022/12/14 12:06:37;;;;;;;;;;;8.60;99.90;;;;;;5050057;28;19917;-70
2022/12/14 12:09:22;;;;;;;;;;;8.60;99.90;;;;;;5054754;28;19912;-71
2022/12/14 12:11:48;;;;;;;;;;;8.70;99.90;;;;;;5076391;28;19917;-70
2022/12/14 12:14:13;;;;;;;;;;;8.80;99.90;;;;;;5055508;28;19964;-71
2022/12/14 12:16:40;;;;;;;;;;;8.90;99.90;;;;;;5055522;28;19909;-70
2022/12/14 12:19:06;;;;;;;;;;;8.80;99.90;;;;;;5070691;28;19924;-70
2022/12/14 12:21:35;;;;;;;;;;;8.60;99.90;;;;;;5066399;28;19931;-71
2022/12/14 12:24:01;;;;;;;;;;;8.60;99.90;;;;;;5069019;28;20283;-70
2022/12/14 12:26:27;;;;;;;;;;;8.70;99.90;;;;;;5070596;28;19909;-71
2022/12/14 12:28:56;;;;;;;;;;;8.60;99.90;;;;;;5062115;28;20415;-69
2022/12/14 12:31:25;;;;;;;;;;;8.60;99.90;;;;;;5048800;28;19908;-70
2022/12/14 12:33:54;;;;;;;;;;;8.70;99.90;;;;;;5066333;28;19920;-71
2022/12/14 12:36:20;;;;;;;;;;;8.70;99.90;;;;;;5062840;28;19919;-70
2022/12/14 12:38:52;;;;;;;;;;;8.70;99.90;;;;;;5059535;28;19917;-70
2022/12/14 12:41:23;;;;;;;;;;;8.70;99.90;;;;;;5066919;28;19916;-70
2022/12/14 12:44:02;;;;;;;;;;;8.70;99.90;;;;;;5074837;28;19909;-70
2022/12/14 12:46:32;;;;;;;;;;;8.80;99.90;;;;;;5069889;28;19916;-70
2022/12/14 12:49:02;;;;;;;;;;;8.80;99.90;;;;;;5066695;28;19920;-69
2022/12/14 12:51:29;;;;;;;;;;;8.90;99.90;;;;;;5072629;28;19928;-70
2022/12/14 12:53:58;;;;;;;;;;;8.90;99.90;;;;;;5070481;28;20975;-70
2022/12/14 12:56:25;;;;;;;;;;;8.90;99.90;;;;;;5071202;28;19916;-71
2022/12/14 12:58:52;;;;;;;;;;;8.90;99.90;;;;;;5069864;28;19955;-71
2022/12/14 13:01:23;;;;;;;;;;;9.00;99.90;;;;;;5069758;28;19920;-70
2022/12/14 13:03:51;;;;;;;;;;;9.00;99.90;;;;;;5071118;28;19916;-71
2022/12/14 13:06:26;;;;;;;;;;;8.90;99.90;;;;;;5069814;28;19913;-68
2022/12/14 13:08:57;;;;;;;;;;;9.00;99.90;;;;;;5059213;28;19948;-73
2022/12/14 13:11:25;;;;;;;;;;;8.90;99.90;;;;;;5071814;28;20412;-70
2022/12/14 13:13:52;;;;;;;;;;;8.90;99.90;;;;;;5068178;28;19939;-69
2022/12/14 13:16:22;;;;;;;;;;;8.80;99.90;;;;;;5074163;28;19988;-71
2022/12/14 13:18:50;;;;;;;;;;;8.80;99.90;;;;;;5070782;28;19925;-70
2022/12/14 13:21:25;;;;;;;;;;;8.70;99.90;;;;;;5066840;28;20001;-70
2022/12/14 13:23:50;;;;;;;;;;;8.70;99.90;;;;;;5067154;28;19959;-70
2022/12/14 13:26:16;;;;;;;;;;;8.70;99.90;;;;;;5068623;28;19920;-69
2022/12/14 13:28:48;;;;;;;;;;;8.60;99.90;;;;;;5058087;28;19920;-73
2022/12/14 13:31:14;;;;;;;;;;;8.60;99.90;;;;;;5069426;28;19920;-72
2022/12/14 13:33:40;;;;;;;;;;;8.60;99.90;;;;;;5068350;28;19985;-73
2022/12/14 13:36:18;;;;;;;;;;;8.60;99.90;;;;;;5065209;28;19955;-73
2022/12/14 13:39:05;;;;;;;;;;;8.60;99.90;;;;;;5070538;28;20303;-73
2022/12/14 13:41:47;;;;;;;;;;;8.50;99.90;;;;;;5083131;28;20375;-73
2022/12/14 13:44:22;;;;;;;;;;;8.50;99.90;;;;;;5055647;28;20312;-73
2022/12/14 13:46:59;;;;;;;;;;;8.40;99.90;;;;;;5066592;28;19913;-73
2022/12/14 13:49:25;;;;;;;;;;;8.50;99.90;;;;;;5069020;28;19916;-73
2022/12/14 13:51:54;;;;;;;;;;;8.40;99.90;;;;;;5070892;28;20201;-73
2022/12/14 13:54:22;;;;;;;;;;;8.50;99.90;;;;;;5073833;28;19992;-73
2022/12/14 13:56:48;;;;;;;;;;;8.60;99.90;;;;;;5072170;28;19958;-73
2022/12/14 13:59:28;;;;;;;;;;;8.60;99.90;;;;;;5071618;28;19916;-73
2022/12/14 14:01:56;;;;;;;;;;;8.70;99.90;;;;;;5070419;28;20281;-73
2022/12/14 14:04:31;;;;;;;;;;;8.70;99.90;;;;;;5070729;28;19920;-73
2022/12/14 14:07:17;;;;;;;;;;;8.60;99.90;;;;;;5070855;28;19913;-73
2022/12/14 14:09:42;;;;;;;;;;;8.60;99.90;;;;;;5073069;28;19961;-73
2022/12/14 14:12:26;;;;;;;;;;;8.60;99.90;;;;;;5073375;28;19912;-73
2022/12/14 14:14:52;;;;;;;;;;;8.50;99.90;;;;;;5072258;28;19919;-73
2022/12/14 14:17:25;;;;;;;;;;;8.50;99.90;;;;;;5062901;28;19916;-73
2022/12/14 14:19:54;;;;;;;;;;;8.40;99.90;;;;;;5058355;28;19917;-73
2022/12/14 14:22:22;;;;;;;;;;;8.40;99.90;;;;;;5073103;28;19908;-73
2022/12/14 14:24:55;;;;;;;;;;;8.30;99.90;;;;;;5078747;28;19912;-73
2022/12/14 14:27:23;;;;;;;;;;;8.30;99.90;;;;;;5069090;28;19952;-73
2022/12/14 14:29:49;;;;;;;;;;;8.30;99.90;;;;;;5068948;28;20582;-73
2022/12/14 14:32:24;;;;;;;;;;;8.20;99.90;;;;;;5061876;28;19999;-73
2022/12/14 14:34:50;;;;;;;;;;;8.20;99.90;;;;;;5062223;28;19921;-72
2022/12/14 14:37:19;;;;;;;;;;;8.20;99.90;;;;;;5059163;28;19957;-73
2022/12/14 14:39:53;;;;;;;;;;;8.20;99.90;;;;;;5047754;28;20007;-73
2022/12/14 14:42:24;;;;;;;;;;;8.20;99.90;;;;;;5069850;28;19991;-73
2022/12/14 14:44:51;;;;;;;;;;;8.20;99.90;;;;;;5061348;28;20359;-74
2022/12/14 14:47:25;;;;;;;;;;;8.20;99.90;;;;;;5067507;28;19916;-73
2022/12/14 14:49:56;;;;;;;;;;;8.20;99.90;;;;;;5060934;28;19967;-73
2022/12/14 14:52:40;;;;;;;;;;;8.20;99.90;;;;;;5072873;28;19954;-73
2022/12/14 14:55:24;;;;;;;;;;;8.20;99.90;;;;;;5059699;28;19928;-73
2022/12/14 14:57:58;;;;;;;;;;;8.10;99.90;;;;;;5051606;28;20000;-73